sensor_id;sensor_type;location;lat;lon;timestamp;P1;durP1;ratioP1;P2;durP2;ratioP2
75997;SDS011;64685;48.762;44.822;2024-01-30T00:04:11;27.38;;;10.80;;
75997;SDS011;64685;48.762;44.822;2024-01-30T00:09:14;44.28;;;15.38;;
75997;SDS011;64685;48.762;44.822;2024-01-30T00:14:18;32.75;;;9.55;;
75997;SDS011;64685;48.762;44.822;2024-01-30T00:19:21;18.60;;;7.38;;
75997;SDS011;64685;48.762;44.822;2024-01-30T00:24:25;22.13;;;6.47;;
75997;SDS011;64685;48.762;44.822;2024-01-30T00:29:28;18.10;;;6.07;;
75997;SDS011;64685;48.762;44.822;2024-01-30T00:34:33;20.95;;;6.40;;
75997;SDS011;64685;48.762;44.822;2024-01-30T00:39:36;19.98;;;7.57;;
75997;SDS011;64685;48.762;44.822;2024-01-30T00:44:39;23.50;;;9.80;;
75997;SDS011;64685;48.762;44.822;2024-01-30T00:49:43;25.95;;;8.95;;
75997;SDS011;64685;48.762;44.822;2024-01-30T00:54:46;26.35;;;9.20;;
75997;SDS011;64685;48.762;44.822;2024-01-30T00:59:49;30.60;;;9.27;;
75997;SDS011;64685;48.762;44.822;2024-01-30T01:04:52;31.15;;;10.38;;
75997;SDS011;64685;48.762;44.822;2024-01-30T01:09:55;28.50;;;10.55;;
75997;SDS011;64685;48.762;44.822;2024-01-30T01:14:58;34.20;;;10.35;;
75997;SDS011;64685;48.762;44.822;2024-01-30T01:20:01;42.05;;;11.30;;
75997;SDS011;64685;48.762;44.822;2024-01-30T01:25:06;29.67;;;11.13;;
75997;SDS011;64685;48.762;44.822;2024-01-30T01:30:10;28.48;;;10.75;;
75997;SDS011;64685;48.762;44.822;2024-01-30T01:35:16;30.33;;;9.57;;
75997;SDS011;64685;48.762;44.822;2024-01-30T01:40:23;30.50;;;10.65;;
75997;SDS011;64685;48.762;44.822;2024-01-30T01:45:26;27.67;;;11.80;;
75997;SDS011;64685;48.762;44.822;2024-01-30T01:50:29;27.52;;;9.38;;
75997;SDS011;64685;48.762;44.822;2024-01-30T01:55:36;26.65;;;10.43;;
75997;SDS011;64685;48.762;44.822;2024-01-30T02:00:40;28.48;;;9.75;;
75997;SDS011;64685;48.762;44.822;2024-01-30T02:05:44;29.23;;;11.15;;
75997;SDS011;64685;48.762;44.822;2024-01-30T02:10:47;23.90;;;10.25;;
75997;SDS011;64685;48.762;44.822;2024-01-30T02:15:51;24.20;;;10.18;;
75997;SDS011;64685;48.762;44.822;2024-01-30T02:20:56;25.05;;;9.15;;
75997;SDS011;64685;48.762;44.822;2024-01-30T02:26:01;24.58;;;10.65;;
75997;SDS011;64685;48.762;44.822;2024-01-30T02:31:04;26.00;;;10.07;;
75997;SDS011;64685;48.762;44.822;2024-01-30T02:36:10;27.75;;;10.93;;
75997;SDS011;64685;48.762;44.822;2024-01-30T02:41:13;21.30;;;8.50;;
75997;SDS011;64685;48.762;44.822;2024-01-30T02:46:18;30.63;;;10.10;;
75997;SDS011;64685;48.762;44.822;2024-01-30T02:51:21;25.35;;;9.23;;
75997;SDS011;64685;48.762;44.822;2024-01-30T02:56:24;23.25;;;9.07;;
75997;SDS011;64685;48.762;44.822;2024-01-30T03:01:27;27.10;;;9.25;;
75997;SDS011;64685;48.762;44.822;2024-01-30T03:06:30;26.30;;;10.77;;
75997;SDS011;64685;48.762;44.822;2024-01-30T03:11:33;25.27;;;10.65;;
75997;SDS011;64685;48.762;44.822;2024-01-30T03:16:37;27.15;;;10.27;;
75997;SDS011;64685;48.762;44.822;2024-01-30T03:21:40;24.17;;;9.65;;
75997;SDS011;64685;48.762;44.822;2024-01-30T03:26:43;21.10;;;7.13;;
75997;SDS011;64685;48.762;44.822;2024-01-30T03:31:48;20.73;;;8.18;;
75997;SDS011;64685;48.762;44.822;2024-01-30T03:36:51;26.83;;;9.25;;
75997;SDS011;64685;48.762;44.822;2024-01-30T03:41:54;19.73;;;8.05;;
75997;SDS011;64685;48.762;44.822;2024-01-30T03:46:59;23.85;;;9.35;;
75997;SDS011;64685;48.762;44.822;2024-01-30T03:52:03;22.25;;;8.38;;
75997;SDS011;64685;48.762;44.822;2024-01-30T03:57:06;19.55;;;8.80;;
75997;SDS011;64685;48.762;44.822;2024-01-30T04:02:10;18.40;;;7.55;;
75997;SDS011;64685;48.762;44.822;2024-01-30T04:07:16;19.15;;;8.63;;
75997;SDS011;64685;48.762;44.822;2024-01-30T04:12:22;21.10;;;8.38;;
75997;SDS011;64685;48.762;44.822;2024-01-30T04:17:25;21.40;;;8.70;;
75997;SDS011;64685;48.762;44.822;2024-01-30T04:22:28;22.80;;;8.20;;
75997;SDS011;64685;48.762;44.822;2024-01-30T04:27:31;19.00;;;7.35;;
75997;SDS011;64685;48.762;44.822;2024-01-30T04:32:34;17.67;;;6.93;;
75997;SDS011;64685;48.762;44.822;2024-01-30T04:37:38;14.93;;;6.68;;
75997;SDS011;64685;48.762;44.822;2024-01-30T04:42:44;14.88;;;5.97;;
75997;SDS011;64685;48.762;44.822;2024-01-30T04:47:48;15.27;;;5.57;;
75997;SDS011;64685;48.762;44.822;2024-01-30T04:52:52;10.50;;;4.30;;
75997;SDS011;64685;48.762;44.822;2024-01-30T04:57:56;15.23;;;5.70;;
75997;SDS011;64685;48.762;44.822;2024-01-30T05:03:00;15.45;;;6.03;;
75997;SDS011;64685;48.762;44.822;2024-01-30T05:08:04;13.98;;;5.43;;
75997;SDS011;64685;48.762;44.822;2024-01-30T05:13:08;11.45;;;4.13;;
75997;SDS011;64685;48.762;44.822;2024-01-30T05:18:12;11.00;;;4.28;;
75997;SDS011;64685;48.762;44.822;2024-01-30T05:23:16;8.75;;;4.03;;
75997;SDS011;64685;48.762;44.822;2024-01-30T05:28:20;11.38;;;4.22;;
75997;SDS011;64685;48.762;44.822;2024-01-30T05:33:23;9.48;;;4.20;;
75997;SDS011;64685;48.762;44.822;2024-01-30T05:38:28;10.40;;;3.70;;
75997;SDS011;64685;48.762;44.822;2024-01-30T05:43:33;11.75;;;4.50;;
75997;SDS011;64685;48.762;44.822;2024-01-30T05:48:37;9.45;;;4.28;;
75997;SDS011;64685;48.762;44.822;2024-01-30T05:53:41;12.15;;;4.18;;
75997;SDS011;64685;48.762;44.822;2024-01-30T05:58:45;11.50;;;4.30;;
75997;SDS011;64685;48.762;44.822;2024-01-30T06:03:48;12.38;;;3.78;;
75997;SDS011;64685;48.762;44.822;2024-01-30T06:08:52;8.75;;;4.20;;
75997;SDS011;64685;48.762;44.822;2024-01-30T06:13:58;12.52;;;4.55;;
75997;SDS011;64685;48.762;44.822;2024-01-30T06:19:02;9.43;;;4.00;;
75997;SDS011;64685;48.762;44.822;2024-01-30T06:24:05;10.32;;;4.20;;
75997;SDS011;64685;48.762;44.822;2024-01-30T06:29:09;7.97;;;3.42;;
75997;SDS011;64685;48.762;44.822;2024-01-30T06:34:13;9.93;;;4.63;;
75997;SDS011;64685;48.762;44.822;2024-01-30T06:39:16;11.15;;;3.88;;
75997;SDS011;64685;48.762;44.822;2024-01-30T06:44:20;10.88;;;4.53;;
75997;SDS011;64685;48.762;44.822;2024-01-30T06:49:24;10.27;;;4.20;;
75997;SDS011;64685;48.762;44.822;2024-01-30T06:54:27;12.77;;;5.05;;
75997;SDS011;64685;48.762;44.822;2024-01-30T06:59:31;11.70;;;4.43;;
75997;SDS011;64685;48.762;44.822;2024-01-30T07:04:34;9.02;;;3.80;;
75997;SDS011;64685;48.762;44.822;2024-01-30T07:09:41;10.05;;;4.43;;
75997;SDS011;64685;48.762;44.822;2024-01-30T07:14:45;11.80;;;4.57;;
75997;SDS011;64685;48.762;44.822;2024-01-30T07:19:48;11.77;;;4.43;;
75997;SDS011;64685;48.762;44.822;2024-01-30T07:24:52;10.77;;;4.45;;
75997;SDS011;64685;48.762;44.822;2024-01-30T07:29:55;10.20;;;4.35;;
75997;SDS011;64685;48.762;44.822;2024-01-30T07:34:59;11.02;;;4.55;;
75997;SDS011;64685;48.762;44.822;2024-01-30T07:40:10;9.18;;;3.97;;
75997;SDS011;64685;48.762;44.822;2024-01-30T07:45:13;13.18;;;4.55;;
75997;SDS011;64685;48.762;44.822;2024-01-30T07:50:17;9.95;;;4.25;;
75997;SDS011;64685;48.762;44.822;2024-01-30T07:55:21;13.25;;;5.25;;
75997;SDS011;64685;48.762;44.822;2024-01-30T08:00:27;8.85;;;4.85;;
75997;SDS011;64685;48.762;44.822;2024-01-30T08:05:32;14.00;;;4.88;;
75997;SDS011;64685;48.762;44.822;2024-01-30T08:10:36;11.02;;;4.03;;
75997;SDS011;64685;48.762;44.822;2024-01-30T08:15:39;9.52;;;3.58;;
75997;SDS011;64685;48.762;44.822;2024-01-30T08:20:43;9.30;;;4.03;;
75997;SDS011;64685;48.762;44.822;2024-01-30T08:25:46;8.60;;;4.18;;
75997;SDS011;64685;48.762;44.822;2024-01-30T08:30:49;11.57;;;5.00;;
75997;SDS011;64685;48.762;44.822;2024-01-30T08:35:53;10.02;;;3.90;;
75997;SDS011;64685;48.762;44.822;2024-01-30T08:40:57;10.02;;;4.10;;
75997;SDS011;64685;48.762;44.822;2024-01-30T08:46:01;9.35;;;3.55;;
75997;SDS011;64685;48.762;44.822;2024-01-30T08:51:05;11.23;;;4.15;;
75997;SDS011;64685;48.762;44.822;2024-01-30T08:56:11;10.70;;;4.50;;
75997;SDS011;64685;48.762;44.822;2024-01-30T09:01:14;11.13;;;4.35;;
75997;SDS011;64685;48.762;44.822;2024-01-30T09:06:18;10.68;;;3.75;;
75997;SDS011;64685;48.762;44.822;2024-01-30T09:11:22;9.35;;;3.33;;
75997;SDS011;64685;48.762;44.822;2024-01-30T09:16:25;7.53;;;3.08;;
75997;SDS011;64685;48.762;44.822;2024-01-30T09:21:29;7.40;;;3.10;;
75997;SDS011;64685;48.762;44.822;2024-01-30T09:26:32;6.10;;;2.67;;
75997;SDS011;64685;48.762;44.822;2024-01-30T09:31:36;10.15;;;3.72;;
75997;SDS011;64685;48.762;44.822;2024-01-30T09:36:40;8.93;;;3.58;;
75997;SDS011;64685;48.762;44.822;2024-01-30T09:41:53;10.50;;;3.80;;
75997;SDS011;64685;48.762;44.822;2024-01-30T09:47:04;10.25;;;4.55;;
75997;SDS011;64685;48.762;44.822;2024-01-30T09:52:08;6.47;;;2.90;;
75997;SDS011;64685;48.762;44.822;2024-01-30T09:57:11;7.60;;;3.30;;
75997;SDS011;64685;48.762;44.822;2024-01-30T10:02:15;9.95;;;4.32;;
75997;SDS011;64685;48.762;44.822;2024-01-30T10:07:19;9.70;;;3.95;;
75997;SDS011;64685;48.762;44.822;2024-01-30T10:12:23;8.60;;;4.03;;
75997;SDS011;64685;48.762;44.822;2024-01-30T10:17:28;9.27;;;3.85;;
75997;SDS011;64685;48.762;44.822;2024-01-30T10:22:35;9.20;;;3.97;;
75997;SDS011;64685;48.762;44.822;2024-01-30T10:27:39;9.98;;;4.68;;
75997;SDS011;64685;48.762;44.822;2024-01-30T10:32:42;9.80;;;4.03;;
75997;SDS011;64685;48.762;44.822;2024-01-30T10:37:48;10.13;;;4.13;;
75997;SDS011;64685;48.762;44.822;2024-01-30T10:42:51;8.18;;;3.47;;
75997;SDS011;64685;48.762;44.822;2024-01-30T10:47:58;10.20;;;4.25;;
75997;SDS011;64685;48.762;44.822;2024-01-30T10:58:06;9.27;;;4.07;;
75997;SDS011;64685;48.762;44.822;2024-01-30T11:03:10;9.85;;;4.45;;
75997;SDS011;64685;48.762;44.822;2024-01-30T11:08:14;11.90;;;4.50;;
75997;SDS011;64685;48.762;44.822;2024-01-30T11:13:18;10.35;;;4.55;;
75997;SDS011;64685;48.762;44.822;2024-01-30T11:18:31;8.40;;;3.58;;
75997;SDS011;64685;48.762;44.822;2024-01-30T11:23:34;10.35;;;4.07;;
75997;SDS011;64685;48.762;44.822;2024-01-30T11:28:38;10.15;;;3.97;;
75997;SDS011;64685;48.762;44.822;2024-01-30T11:33:41;11.90;;;4.80;;
75997;SDS011;64685;48.762;44.822;2024-01-30T11:38:44;12.02;;;4.50;;
75997;SDS011;64685;48.762;44.822;2024-01-30T11:43:53;9.60;;;4.20;;
75997;SDS011;64685;48.762;44.822;2024-01-30T11:48:56;9.90;;;4.53;;
75997;SDS011;64685;48.762;44.822;2024-01-30T11:54:00;7.13;;;3.00;;
75997;SDS011;64685;48.762;44.822;2024-01-30T11:59:02;10.40;;;4.90;;
75997;SDS011;64685;48.762;44.822;2024-01-30T12:04:05;8.68;;;4.28;;
75997;SDS011;64685;48.762;44.822;2024-01-30T12:09:12;10.18;;;4.95;;
75997;SDS011;64685;48.762;44.822;2024-01-30T12:14:16;10.52;;;4.10;;
75997;SDS011;64685;48.762;44.822;2024-01-30T12:19:25;12.20;;;4.65;;
75997;SDS011;64685;48.762;44.822;2024-01-30T12:24:28;12.52;;;5.68;;
75997;SDS011;64685;48.762;44.822;2024-01-30T12:29:32;11.15;;;5.07;;
75997;SDS011;64685;48.762;44.822;2024-01-30T12:34:40;12.30;;;5.35;;
75997;SDS011;64685;48.762;44.822;2024-01-30T12:39:57;13.60;;;5.15;;
75997;SDS011;64685;48.762;44.822;2024-01-30T12:45:02;12.10;;;5.32;;
75997;SDS011;64685;48.762;44.822;2024-01-30T12:50:07;13.77;;;5.53;;
75997;SDS011;64685;48.762;44.822;2024-01-30T12:55:10;14.45;;;6.45;;
75997;SDS011;64685;48.762;44.822;2024-01-30T13:00:13;12.25;;;5.35;;
75997;SDS011;64685;48.762;44.822;2024-01-30T13:05:19;13.95;;;5.55;;
75997;SDS011;64685;48.762;44.822;2024-01-30T13:10:23;10.95;;;4.70;;
75997;SDS011;64685;48.762;44.822;2024-01-30T13:15:26;14.40;;;4.70;;
75997;SDS011;64685;48.762;44.822;2024-01-30T13:20:29;15.13;;;5.85;;
75997;SDS011;64685;48.762;44.822;2024-01-30T13:25:33;16.00;;;6.07;;
75997;SDS011;64685;48.762;44.822;2024-01-30T13:30:36;12.80;;;5.15;;
75997;SDS011;64685;48.762;44.822;2024-01-30T13:35:39;10.23;;;4.43;;
75997;SDS011;64685;48.762;44.822;2024-01-30T13:40:42;15.38;;;5.53;;
75997;SDS011;64685;48.762;44.822;2024-01-30T13:45:45;16.90;;;5.95;;
75997;SDS011;64685;48.762;44.822;2024-01-30T13:50:48;17.27;;;6.10;;
75997;SDS011;64685;48.762;44.822;2024-01-30T13:55:51;11.60;;;5.03;;
75997;SDS011;64685;48.762;44.822;2024-01-30T14:00:54;16.80;;;6.65;;
75997;SDS011;64685;48.762;44.822;2024-01-30T14:05:57;16.58;;;7.50;;
75997;SDS011;64685;48.762;44.822;2024-01-30T14:11:01;17.48;;;7.25;;
75997;SDS011;64685;48.762;44.822;2024-01-30T14:16:04;17.77;;;6.57;;
75997;SDS011;64685;48.762;44.822;2024-01-30T14:21:09;15.07;;;6.78;;
75997;SDS011;64685;48.762;44.822;2024-01-30T14:26:11;17.02;;;7.72;;
75997;SDS011;64685;48.762;44.822;2024-01-30T14:31:14;17.30;;;6.88;;
75997;SDS011;64685;48.762;44.822;2024-01-30T14:36:19;13.85;;;5.85;;
75997;SDS011;64685;48.762;44.822;2024-01-30T14:41:22;17.65;;;7.32;;
75997;SDS011;64685;48.762;44.822;2024-01-30T14:46:25;17.00;;;6.47;;
75997;SDS011;64685;48.762;44.822;2024-01-30T14:51:29;16.95;;;5.82;;
75997;SDS011;64685;48.762;44.822;2024-01-30T14:56:32;16.08;;;6.82;;
75997;SDS011;64685;48.762;44.822;2024-01-30T15:01:35;14.52;;;5.93;;
75997;SDS011;64685;48.762;44.822;2024-01-30T15:06:38;13.10;;;5.18;;
75997;SDS011;64685;48.762;44.822;2024-01-30T15:11:47;16.35;;;6.28;;
75997;SDS011;64685;48.762;44.822;2024-01-30T15:16:50;14.63;;;6.30;;
75997;SDS011;64685;48.762;44.822;2024-01-30T15:21:54;15.15;;;6.25;;
75997;SDS011;64685;48.762;44.822;2024-01-30T15:26:56;18.48;;;8.10;;
75997;SDS011;64685;48.762;44.822;2024-01-30T15:32:00;15.65;;;7.22;;
75997;SDS011;64685;48.762;44.822;2024-01-30T15:37:03;14.50;;;6.18;;
75997;SDS011;64685;48.762;44.822;2024-01-30T15:42:06;15.52;;;6.80;;
75997;SDS011;64685;48.762;44.822;2024-01-30T15:47:09;9.15;;;3.10;;
75997;SDS011;64685;48.762;44.822;2024-01-30T15:52:12;19.27;;;6.30;;
75997;SDS011;64685;48.762;44.822;2024-01-30T15:57:18;18.60;;;7.05;;
75997;SDS011;64685;48.762;44.822;2024-01-30T16:02:20;18.42;;;8.10;;
75997;SDS011;64685;48.762;44.822;2024-01-30T16:07:24;18.77;;;7.07;;
75997;SDS011;64685;48.762;44.822;2024-01-30T16:12:27;14.55;;;7.03;;
75997;SDS011;64685;48.762;44.822;2024-01-30T16:17:32;16.40;;;7.40;;
75997;SDS011;64685;48.762;44.822;2024-01-30T16:22:45;18.80;;;8.63;;
75997;SDS011;64685;48.762;44.822;2024-01-30T16:28:15;18.42;;;7.53;;
75997;SDS011;64685;48.762;44.822;2024-01-30T16:33:18;18.60;;;8.05;;
75997;SDS011;64685;48.762;44.822;2024-01-30T16:38:21;20.23;;;6.93;;
75997;SDS011;64685;48.762;44.822;2024-01-30T16:43:24;15.75;;;6.93;;
75997;SDS011;64685;48.762;44.822;2024-01-30T16:48:27;13.07;;;5.40;;
75997;SDS011;64685;48.762;44.822;2024-01-30T16:53:30;19.88;;;8.43;;
75997;SDS011;64685;48.762;44.822;2024-01-30T16:58:33;15.43;;;7.18;;
75997;SDS011;64685;48.762;44.822;2024-01-30T17:03:36;16.20;;;7.22;;
75997;SDS011;64685;48.762;44.822;2024-01-30T17:08:38;16.70;;;6.85;;
75997;SDS011;64685;48.762;44.822;2024-01-30T17:13:42;18.73;;;7.55;;
75997;SDS011;64685;48.762;44.822;2024-01-30T17:18:44;20.40;;;9.10;;
75997;SDS011;64685;48.762;44.822;2024-01-30T17:23:48;18.73;;;6.47;;
75997;SDS011;64685;48.762;44.822;2024-01-30T17:28:50;19.90;;;8.18;;
75997;SDS011;64685;48.762;44.822;2024-01-30T17:33:53;19.25;;;7.13;;
75997;SDS011;64685;48.762;44.822;2024-01-30T17:38:56;16.33;;;5.90;;
75997;SDS011;64685;48.762;44.822;2024-01-30T17:44:03;18.20;;;8.25;;
75997;SDS011;64685;48.762;44.822;2024-01-30T17:49:06;13.13;;;5.15;;
75997;SDS011;64685;48.762;44.822;2024-01-30T17:54:09;19.92;;;8.00;;
75997;SDS011;64685;48.762;44.822;2024-01-30T17:59:12;19.88;;;7.25;;
75997;SDS011;64685;48.762;44.822;2024-01-30T18:04:15;17.73;;;8.05;;
75997;SDS011;64685;48.762;44.822;2024-01-30T18:09:21;18.90;;;8.02;;
75997;SDS011;64685;48.762;44.822;2024-01-30T18:14:26;19.35;;;7.32;;
75997;SDS011;64685;48.762;44.822;2024-01-30T18:19:29;18.75;;;8.05;;
75997;SDS011;64685;48.762;44.822;2024-01-30T18:24:32;20.27;;;7.03;;
75997;SDS011;64685;48.762;44.822;2024-01-30T18:29:35;13.70;;;4.95;;
75997;SDS011;64685;48.762;44.822;2024-01-30T18:34:38;18.45;;;5.93;;
75997;SDS011;64685;48.762;44.822;2024-01-30T18:39:41;16.67;;;7.00;;
75997;SDS011;64685;48.762;44.822;2024-01-30T18:44:45;18.13;;;6.95;;
75997;SDS011;64685;48.762;44.822;2024-01-30T18:49:48;15.80;;;5.25;;
75997;SDS011;64685;48.762;44.822;2024-01-30T18:59:56;15.82;;;5.55;;
75997;SDS011;64685;48.762;44.822;2024-01-30T19:04:59;10.13;;;3.42;;
75997;SDS011;64685;48.762;44.822;2024-01-30T19:10:04;17.27;;;6.72;;
75997;SDS011;64685;48.762;44.822;2024-01-30T19:15:07;12.70;;;5.75;;
75997;SDS011;64685;48.762;44.822;2024-01-30T19:20:11;19.00;;;7.28;;
75997;SDS011;64685;48.762;44.822;2024-01-30T19:25:14;18.15;;;7.35;;
75997;SDS011;64685;48.762;44.822;2024-01-30T19:30:17;17.83;;;6.88;;
75997;SDS011;64685;48.762;44.822;2024-01-30T19:35:20;13.95;;;5.65;;
75997;SDS011;64685;48.762;44.822;2024-01-30T19:40:24;14.82;;;7.07;;
75997;SDS011;64685;48.762;44.822;2024-01-30T19:45:26;13.05;;;5.45;;
75997;SDS011;64685;48.762;44.822;2024-01-30T19:50:29;13.40;;;5.28;;
75997;SDS011;64685;48.762;44.822;2024-01-30T19:55:32;20.05;;;7.63;;
75997;SDS011;64685;48.762;44.822;2024-01-30T20:00:35;19.63;;;8.70;;
75997;SDS011;64685;48.762;44.822;2024-01-30T20:05:37;19.27;;;8.65;;
75997;SDS011;64685;48.762;44.822;2024-01-30T20:10:40;25.52;;;9.60;;
75997;SDS011;64685;48.762;44.822;2024-01-30T20:15:43;15.18;;;6.95;;
75997;SDS011;64685;48.762;44.822;2024-01-30T20:20:46;19.38;;;9.75;;
75997;SDS011;64685;48.762;44.822;2024-01-30T20:25:48;23.83;;;9.25;;
75997;SDS011;64685;48.762;44.822;2024-01-30T20:30:51;23.65;;;9.95;;
75997;SDS011;64685;48.762;44.822;2024-01-30T20:35:54;18.67;;;8.27;;
75997;SDS011;64685;48.762;44.822;2024-01-30T20:40:57;18.88;;;9.15;;
75997;SDS011;64685;48.762;44.822;2024-01-30T20:46:01;21.38;;;8.73;;
75997;SDS011;64685;48.762;44.822;2024-01-30T20:51:04;14.45;;;6.70;;
75997;SDS011;64685;48.762;44.822;2024-01-30T20:56:07;11.98;;;4.90;;
75997;SDS011;64685;48.762;44.822;2024-01-30T21:01:09;14.75;;;6.32;;
75997;SDS011;64685;48.762;44.822;2024-01-30T21:06:12;14.48;;;6.40;;
75997;SDS011;64685;48.762;44.822;2024-01-30T21:11:15;13.70;;;5.22;;
75997;SDS011;64685;48.762;44.822;2024-01-30T21:16:21;21.48;;;8.98;;
75997;SDS011;64685;48.762;44.822;2024-01-30T21:21:23;10.10;;;4.40;;
75997;SDS011;64685;48.762;44.822;2024-01-30T21:26:26;15.45;;;7.90;;
75997;SDS011;64685;48.762;44.822;2024-01-30T21:31:29;15.98;;;7.75;;
75997;SDS011;64685;48.762;44.822;2024-01-30T21:36:31;12.68;;;5.40;;
75997;SDS011;64685;48.762;44.822;2024-01-30T21:41:34;11.43;;;4.93;;
75997;SDS011;64685;48.762;44.822;2024-01-30T21:46:37;14.15;;;7.40;;
75997;SDS011;64685;48.762;44.822;2024-01-30T21:51:41;15.07;;;7.25;;
75997;SDS011;64685;48.762;44.822;2024-01-30T21:56:44;11.18;;;5.43;;
75997;SDS011;64685;48.762;44.822;2024-01-30T22:01:47;13.50;;;5.57;;
75997;SDS011;64685;48.762;44.822;2024-01-30T22:06:50;10.65;;;6.28;;
75997;SDS011;64685;48.762;44.822;2024-01-30T22:11:53;17.58;;;6.35;;
75997;SDS011;64685;48.762;44.822;2024-01-30T22:16:55;14.02;;;5.88;;
75997;SDS011;64685;48.762;44.822;2024-01-30T22:21:58;14.80;;;6.18;;
75997;SDS011;64685;48.762;44.822;2024-01-30T22:27:01;20.08;;;8.43;;
75997;SDS011;64685;48.762;44.822;2024-01-30T22:32:03;11.90;;;5.25;;
75997;SDS011;64685;48.762;44.822;2024-01-30T22:37:08;13.38;;;5.25;;
75997;SDS011;64685;48.762;44.822;2024-01-30T22:42:11;14.50;;;5.70;;
75997;SDS011;64685;48.762;44.822;2024-01-30T22:47:14;16.45;;;5.25;;
75997;SDS011;64685;48.762;44.822;2024-01-30T22:52:16;16.10;;;5.95;;
75997;SDS011;64685;48.762;44.822;2024-01-30T22:57:19;15.50;;;6.63;;
75997;SDS011;64685;48.762;44.822;2024-01-30T23:02:28;16.30;;;6.65;;
75997;SDS011;64685;48.762;44.822;2024-01-30T23:07:31;12.32;;;5.10;;
75997;SDS011;64685;48.762;44.822;2024-01-30T23:12:38;19.38;;;8.65;;
75997;SDS011;64685;48.762;44.822;2024-01-30T23:17:41;17.85;;;4.97;;
75997;SDS011;64685;48.762;44.822;2024-01-30T23:22:44;11.70;;;5.13;;
75997;SDS011;64685;48.762;44.822;2024-01-30T23:27:47;20.67;;;7.78;;
75997;SDS011;64685;48.762;44.822;2024-01-30T23:32:50;21.67;;;8.40;;
75997;SDS011;64685;48.762;44.822;2024-01-30T23:37:56;6.40;;;3.17;;
75997;SDS011;64685;48.762;44.822;2024-01-30T23:42:58;17.92;;;7.22;;
75997;SDS011;64685;48.762;44.822;2024-01-30T23:48:01;11.18;;;4.53;;
75997;SDS011;64685;48.762;44.822;2024-01-30T23:53:04;18.30;;;6.72;;
75997;SDS011;64685;48.762;44.822;2024-01-30T23:58:08;17.85;;;7.03;;
